LiveATC.Net - Listen to live air traffic control over the Internet!


ICAO: CYQG  IATA: YQG   Airport: Windsor Airport
City: Windsor   State/Province: Ontario
Country: Canada   Continent: North America
CYQG METAR Weather: CYQG 031400Z AUTO 22009KT 9SM FEW017 SCT037 23/19 A2997 RMK SLP149 DENSITY ALT 1600FT
CYQG Flight Activity (FlightAware)
CYQG Webcam:  (Airport Webcams) 

CYQG Gnd/Twr/App/Misc
Feed Status: UP   Listeners: 1
Listen in your browser - HTML5 player (in browser, HTML5)
Click here to listen with your own player (launches your MP3 player)
Archive Access: CYQG Gnd/Twr/App/Misc
FacilityFrequency
Detroit Approach134.300
Great Lakes ESSO122.950
Jazz Air131.775
London RCO123.375
Windsor Ground121.700
Windsor Tower124.700

NOTICE

Unauthorized use prohibited. See LiveATC.net Terms of Service


Airport/ARTCC Code
Frequency Search
(e.g., 124.400, 128.75)
Site-wide search
 


Browse Feeds
Top 50 Feeds
Coverage Map
Bad Weather Areas

LiveATC FAQ
Offer LiveATC feed
Contact LiveATC.net
Press Inquiries

LiveATC on iPhone
LiveATC on Android

Windows Phone
Windows 8/10

LiveATC Mobile
(Mobile browser)

ATC Audio Archives
Interesting Recordings

LiveATC Forums


Home Page
About LiveATC.net
Make a Donation
Terms of Use
Privacy Policy

Canadian Air Freqs

AIRMETs/SIGMETs

FAA Airport Status
Nat'l Airspace Status
Arrival Demand Charts


Server Software By:
Icecast.org
Liquidsoap